createdAt,value
2022-12-31T20:03:26.172Z,13.92
2022-12-31T20:04:26.033Z,13.93
2022-12-31T20:05:26.028Z,13.93
2022-12-31T20:06:26.027Z,13.93
2022-12-31T20:07:27.361Z,14.05
2022-12-31T20:08:26.011Z,14.05
2022-12-31T20:09:25.999Z,14.08
2022-12-31T20:10:25.984Z,13.99
2022-12-31T20:11:26.003Z,14.11
2022-12-31T20:12:25.966Z,14.07
2022-12-31T20:13:25.969Z,14.10
2022-12-31T20:14:25.971Z,14.12
2022-12-31T20:15:25.970Z,14.15
2022-12-31T20:16:25.974Z,14.12
2022-12-31T20:17:25.947Z,14.18
2022-12-31T20:18:25.930Z,14.18
2022-12-31T20:19:25.937Z,14.12
2022-12-31T20:20:25.909Z,14.15
2022-12-31T20:21:25.936Z,14.23
2022-12-31T20:22:25.892Z,14.22
2022-12-31T20:23:25.890Z,14.17
2022-12-31T20:24:25.875Z,14.22
2022-12-31T20:25:25.869Z,14.18
2022-12-31T20:26:25.862Z,14.23
2022-12-31T20:27:25.882Z,14.23
2022-12-31T20:28:25.851Z,14.12
2022-12-31T20:29:25.840Z,14.22
2022-12-31T20:30:25.886Z,14.20
2022-12-31T20:31:25.821Z,14.08
2022-12-31T20:32:25.816Z,14.14
2022-12-31T20:33:25.818Z,14.11
2022-12-31T20:34:25.795Z,14.18
2022-12-31T20:35:25.822Z,14.10
2022-12-31T20:36:25.801Z,14.11
2022-12-31T20:37:25.783Z,14.14
2022-12-31T20:38:25.768Z,14.10
2022-12-31T20:39:25.764Z,14.03
2022-12-31T20:40:25.756Z,14.15
2022-12-31T20:41:25.771Z,14.12
2022-12-31T20:42:25.754Z,14.10
2022-12-31T20:43:25.744Z,14.05
2022-12-31T20:44:25.725Z,14.12
2022-12-31T20:45:25.728Z,14.05
2022-12-31T20:46:25.811Z,14.11
2022-12-31T20:47:25.728Z,14.11
2022-12-31T20:48:25.696Z,14.12
2022-12-31T20:49:52.207Z,14.11
2022-12-31T20:50:26.679Z,14.14
2022-12-31T20:51:25.703Z,14.11
2022-12-31T20:52:25.664Z,14.18
2022-12-31T20:53:25.650Z,14.07
2022-12-31T20:54:25.657Z,14.14
2022-12-31T20:55:25.657Z,14.14
2022-12-31T20:56:25.648Z,14.08
2022-12-31T20:57:28.831Z,14.05
2022-12-31T20:58:26.654Z,14.17
2022-12-31T20:59:25.645Z,14.15
2022-12-31T21:00:25.616Z,14.10
2022-12-31T21:01:26.262Z,14.15
2022-12-31T21:02:40.900Z,14.08
2022-12-31T21:04:03.004Z,14.08
2022-12-31T21:04:26.855Z,14.05
2022-12-31T21:05:25.843Z,14.05
2022-12-31T21:06:25.610Z,14.14
2022-12-31T21:07:25.577Z,14.10
2022-12-31T21:08:29.721Z,14.08
2022-12-31T21:09:26.545Z,14.11
2022-12-31T21:10:25.589Z,14.07
2022-12-31T21:11:25.532Z,14.07
2022-12-31T21:12:25.545Z,14.15
2022-12-31T21:13:25.532Z,14.08
2022-12-31T21:14:25.532Z,14.12
2022-12-31T21:15:25.572Z,14.17
2022-12-31T21:16:25.507Z,13.97
2022-12-31T21:17:25.493Z,13.99
2022-12-31T21:18:25.512Z,14.00
2022-12-31T21:19:25.476Z,14.03
2022-12-31T21:20:25.467Z,14.04
2022-12-31T21:21:25.486Z,14.11
2022-12-31T21:22:25.478Z,14.04
2022-12-31T21:23:25.461Z,14.05
